sensor_id;sensor_type;location;lat;lon;timestamp;pressure;altitude;pressure_sealevel;temperature;humidity
45467;BME280;31212;49.734;8.490;2023-08-06T00:00:26;99708.75;;;14.77;100.00
45467;BME280;31212;49.734;8.490;2023-08-06T00:02:54;99702.47;;;14.85;100.00
45467;BME280;31212;49.734;8.490;2023-08-06T00:05:21;99705.78;;;14.91;100.00
45467;BME280;31212;49.734;8.490;2023-08-06T00:07:47;99700.28;;;15.01;100.00
45467;BME280;31212;49.734;8.490;2023-08-06T00:10:14;99704.34;;;15.12;100.00
45467;BME280;31212;49.734;8.490;2023-08-06T00:12:41;99700.69;;;15.20;100.00
45467;BME280;31212;49.734;8.490;2023-08-06T00:15:08;99692.75;;;15.23;100.00
45467;BME280;31212;49.734;8.490;2023-08-06T00:17:35;99689.31;;;15.21;100.00
45467;BME280;31212;49.734;8.490;2023-08-06T00:20:04;99685.16;;;15.13;100.00
45467;BME280;31212;49.734;8.490;2023-08-06T00:22:33;99684.47;;;15.07;100.00
45467;BME280;31212;49.734;8.490;2023-08-06T00:25:01;99672.47;;;15.00;100.00
45467;BME280;31212;49.734;8.490;2023-08-06T00:27:28;99671.63;;;14.97;100.00
45467;BME280;31212;49.734;8.490;2023-08-06T00:29:54;99667.31;;;14.96;100.00
45467;BME280;31212;49.734;8.490;2023-08-06T00:32:21;99665.59;;;14.95;100.00
45467;BME280;31212;49.734;8.490;2023-08-06T00:34:48;99652.00;;;14.83;100.00
45467;BME280;31212;49.734;8.490;2023-08-06T00:37:17;99659.06;;;14.79;100.00
45467;BME280;31212;49.734;8.490;2023-08-06T00:39:44;99662.59;;;14.78;100.00
45467;BME280;31212;49.734;8.490;2023-08-06T00:42:11;99650.47;;;14.75;100.00
45467;BME280;31212;49.734;8.490;2023-08-06T00:44:38;99647.75;;;14.78;100.00
45467;BME280;31212;49.734;8.490;2023-08-06T00:47:07;99648.00;;;14.69;100.00
45467;BME280;31212;49.734;8.490;2023-08-06T00:49:35;99647.00;;;14.73;100.00
45467;BME280;31212;49.734;8.490;2023-08-06T00:52:03;99640.69;;;14.82;100.00
45467;BME280;31212;49.734;8.490;2023-08-06T00:54:32;99639.63;;;14.89;100.00
45467;BME280;31212;49.734;8.490;2023-08-06T00:56:59;99629.03;;;14.94;100.00
45467;BME280;31212;49.734;8.490;2023-08-06T00:59:27;99626.41;;;14.94;100.00
45467;BME280;31212;49.734;8.490;2023-08-06T01:01:54;99628.38;;;14.86;100.00
45467;BME280;31212;49.734;8.490;2023-08-06T01:04:20;99627.38;;;14.91;100.00
45467;BME280;31212;49.734;8.490;2023-08-06T05:26:48;99523.72;;;14.26;100.00
45467;BME280;31212;49.734;8.490;2023-08-06T05:29:16;99521.69;;;14.37;100.00
45467;BME280;31212;49.734;8.490;2023-08-06T05:31:43;99514.75;;;14.36;100.00
45467;BME280;31212;49.734;8.490;2023-08-06T05:34:09;99514.47;;;14.47;100.00
45467;BME280;31212;49.734;8.490;2023-08-06T05:36:36;99515.16;;;14.54;100.00
45467;BME280;31212;49.734;8.490;2023-08-06T05:39:02;99509.72;;;14.63;100.00
45467;BME280;31212;49.734;8.490;2023-08-06T05:41:29;99504.41;;;14.66;100.00
45467;BME280;31212;49.734;8.490;2023-08-06T05:43:57;99503.59;;;14.62;100.00
45467;BME280;31212;49.734;8.490;2023-08-06T05:46:24;99507.09;;;14.63;100.00
45467;BME280;31212;49.734;8.490;2023-08-06T05:48:50;99513.19;;;14.63;100.00
45467;BME280;31212;49.734;8.490;2023-08-06T05:51:17;99511.34;;;14.66;100.00
45467;BME280;31212;49.734;8.490;2023-08-06T05:53:44;99523.44;;;14.70;100.00
45467;BME280;31212;49.734;8.490;2023-08-06T05:56:12;99513.97;;;14.66;100.00
45467;BME280;31212;49.734;8.490;2023-08-06T05:58:38;99514.84;;;14.66;100.00
45467;BME280;31212;49.734;8.490;2023-08-06T06:01:07;99515.69;;;14.67;100.00
45467;BME280;31212;49.734;8.490;2023-08-06T06:03:33;99501.75;;;14.68;100.00
45467;BME280;31212;49.734;8.490;2023-08-06T06:06:01;99509.56;;;14.68;100.00
45467;BME280;31212;49.734;8.490;2023-08-06T06:08:27;99509.44;;;14.72;100.00
45467;BME280;31212;49.734;8.490;2023-08-06T06:10:54;99508.69;;;14.69;100.00
45467;BME280;31212;49.734;8.490;2023-08-06T06:13:20;99512.78;;;14.77;100.00
45467;BME280;31212;49.734;8.490;2023-08-06T06:15:47;99508.44;;;14.78;100.00
45467;BME280;31212;49.734;8.490;2023-08-06T06:18:15;99514.44;;;14.80;100.00
45467;BME280;31212;49.734;8.490;2023-08-06T06:20:41;99515.28;;;14.82;100.00
45467;BME280;31212;49.734;8.490;2023-08-06T06:23:08;99508.31;;;14.81;100.00
45467;BME280;31212;49.734;8.490;2023-08-06T06:25:34;99513.66;;;14.76;100.00
45467;BME280;31212;49.734;8.490;2023-08-06T06:28:01;99506.06;;;14.69;100.00
45467;BME280;31212;49.734;8.490;2023-08-06T06:30:28;99519.00;;;14.73;100.00
45467;BME280;31212;49.734;8.490;2023-08-06T06:32:54;99510.84;;;14.84;100.00
45467;BME280;31212;49.734;8.490;2023-08-06T06:35:22;99521.50;;;14.76;100.00
45467;BME280;31212;49.734;8.490;2023-08-06T06:37:49;99519.81;;;14.75;100.00
45467;BME280;31212;49.734;8.490;2023-08-06T06:40:15;99521.56;;;14.75;100.00
45467;BME280;31212;49.734;8.490;2023-08-06T06:42:42;99524.09;;;14.78;100.00
45467;BME280;31212;49.734;8.490;2023-08-06T06:45:09;99515.38;;;14.77;100.00
45467;BME280;31212;49.734;8.490;2023-08-06T06:47:36;99527.56;;;14.78;100.00
45467;BME280;31212;49.734;8.490;2023-08-06T06:50:03;99527.56;;;14.78;100.00
45467;BME280;31212;49.734;8.490;2023-08-06T06:52:31;99526.72;;;14.76;100.00
45467;BME280;31212;49.734;8.490;2023-08-06T06:54:57;99534.81;;;14.69;100.00
45467;BME280;31212;49.734;8.490;2023-08-06T06:57:24;99538.31;;;14.68;100.00
45467;BME280;31212;49.734;8.490;2023-08-06T06:59:50;99534.19;;;14.57;100.00
45467;BME280;31212;49.734;8.490;2023-08-06T07:02:17;99536.09;;;14.52;100.00
45467;BME280;31212;49.734;8.490;2023-08-06T07:04:43;99538.09;;;14.42;100.00
45467;BME280;31212;49.734;8.490;2023-08-06T07:07:10;99546.78;;;14.43;100.00
45467;BME280;31212;49.734;8.490;2023-08-06T07:09:38;99548.53;;;14.42;100.00
45467;BME280;31212;49.734;8.490;2023-08-06T07:12:05;99543.53;;;14.35;100.00
45467;BME280;31212;49.734;8.490;2023-08-06T07:14:32;99547.84;;;14.36;100.00
45467;BME280;31212;49.734;8.490;2023-08-06T07:16:58;99548.63;;;14.39;100.00
45467;BME280;31212;49.734;8.490;2023-08-06T07:19:25;99553.72;;;14.44;100.00
45467;BME280;31212;49.734;8.490;2023-08-06T07:21:51;99549.19;;;14.51;100.00
45467;BME280;31212;49.734;8.490;2023-08-06T07:24:18;99546.41;;;14.57;100.00
45467;BME280;31212;49.734;8.490;2023-08-06T07:26:46;99544.59;;;14.59;100.00
45467;BME280;31212;49.734;8.490;2023-08-06T07:29:12;99543.53;;;14.68;100.00
45467;BME280;31212;49.734;8.490;2023-08-06T07:31:39;99543.22;;;14.78;100.00
45467;BME280;31212;49.734;8.490;2023-08-06T07:34:06;99540.41;;;14.86;100.00
45467;BME280;31212;49.734;8.490;2023-08-06T07:36:32;99546.31;;;14.93;100.00
45467;BME280;31212;49.734;8.490;2023-08-06T07:38:59;99552.81;;;15.09;100.00
45467;BME280;31212;49.734;8.490;2023-08-06T07:41:26;99546.59;;;15.13;100.00
45467;BME280;31212;49.734;8.490;2023-08-06T07:43:53;99538.66;;;15.17;100.00
45467;BME280;31212;49.734;8.490;2023-08-06T07:46:20;99540.03;;;15.28;100.00
45467;BME280;31212;49.734;8.490;2023-08-06T07:48:46;99533.44;;;15.45;100.00
45467;BME280;31212;49.734;8.490;2023-08-06T07:51:13;99524.47;;;15.54;100.00
45467;BME280;31212;49.734;8.490;2023-08-06T07:53:40;99513.53;;;15.68;100.00
45467;BME280;31212;49.734;8.490;2023-08-06T07:56:06;99509.69;;;15.79;100.00
45467;BME280;31212;49.734;8.490;2023-08-06T07:58:33;99503.91;;;15.96;100.00
45467;BME280;31212;49.734;8.490;2023-08-06T08:01:01;99500.72;;;16.62;100.00
45467;BME280;31212;49.734;8.490;2023-08-06T08:03:28;99460.97;;;17.65;96.47
45467;BME280;31212;49.734;8.490;2023-08-06T08:05:55;99390.81;;;18.30;90.74
45467;BME280;31212;49.734;8.490;2023-08-06T08:08:23;99340.16;;;18.46;87.34
45467;BME280;31212;49.734;8.490;2023-08-06T08:10:50;99308.06;;;18.20;85.94
45467;BME280;31212;49.734;8.490;2023-08-06T08:13:17;99286.81;;;18.06;84.92
45467;BME280;31212;49.734;8.490;2023-08-06T08:15:43;99282.66;;;17.81;84.83
45467;BME280;31212;49.734;8.490;2023-08-06T08:18:11;99255.75;;;17.76;84.05
45467;BME280;31212;49.734;8.490;2023-08-06T08:20:38;99264.59;;;17.54;83.94
45467;BME280;31212;49.734;8.490;2023-08-06T08:23:05;99273.34;;;17.34;84.13
45467;BME280;31212;49.734;8.490;2023-08-06T08:25:31;99268.50;;;17.25;83.76
45467;BME280;31212;49.734;8.490;2023-08-06T08:27:59;99253.00;;;17.39;83.25
45467;BME280;31212;49.734;8.490;2023-08-06T08:30:26;99234.75;;;17.76;82.41
45467;BME280;31212;49.734;8.490;2023-08-06T08:32:52;99233.84;;;17.77;82.48
45467;BME280;31212;49.734;8.490;2023-08-06T08:35:20;99217.72;;;18.42;81.27
45467;BME280;31212;49.734;8.490;2023-08-06T08:37:47;99101.81;;;19.16;77.36
45467;BME280;31212;49.734;8.490;2023-08-06T08:40:14;99046.97;;;20.49;74.85
45467;BME280;31212;49.734;8.490;2023-08-06T08:42:41;98951.22;;;21.20;71.17
45467;BME280;31212;49.734;8.490;2023-08-06T08:45:13;98883.00;;;22.07;68.48
45467;BME280;31212;49.734;8.490;2023-08-06T08:47:41;98882.56;;;21.07;68.35
45467;BME280;31212;49.734;8.490;2023-08-06T08:50:08;98946.16;;;20.75;69.51
45467;BME280;31212;49.734;8.490;2023-08-06T08:52:38;98918.44;;;20.53;68.86
45467;BME280;31212;49.734;8.490;2023-08-06T08:55:07;98979.88;;;20.10;70.53
45467;BME280;31212;49.734;8.490;2023-08-06T08:57:34;99004.81;;;19.42;71.74
45467;BME280;31212;49.734;8.490;2023-08-06T09:00:00;99023.31;;;19.09;71.70
45467;BME280;31212;49.734;8.490;2023-08-06T09:02:28;99064.22;;;18.28;73.29
45467;BME280;31212;49.734;8.490;2023-08-06T09:04:56;99113.50;;;17.87;74.84
45467;BME280;31212;49.734;8.490;2023-08-06T09:07:25;99160.00;;;17.46;75.98
45467;BME280;31212;49.734;8.490;2023-08-06T09:09:54;99182.94;;;17.22;76.74
45467;BME280;31212;49.734;8.490;2023-08-06T09:12:22;99203.00;;;17.03;77.71
45467;BME280;31212;49.734;8.490;2023-08-06T09:14:49;99228.31;;;17.04;78.80
45467;BME280;31212;49.734;8.490;2023-08-06T09:17:16;99249.41;;;17.01;79.26
45467;BME280;31212;49.734;8.490;2023-08-06T09:19:45;99260.22;;;16.93;79.40
45467;BME280;31212;49.734;8.490;2023-08-06T09:22:13;99248.69;;;17.18;79.42
45467;BME280;31212;49.734;8.490;2023-08-06T09:24:41;99235.63;;;17.37;78.54
45467;BME280;31212;49.734;8.490;2023-08-06T09:27:12;99192.41;;;17.45;77.59
45467;BME280;31212;49.734;8.490;2023-08-06T09:29:43;99184.97;;;17.55;77.13
45467;BME280;31212;49.734;8.490;2023-08-06T09:32:10;99182.41;;;17.73;77.14
45467;BME280;31212;49.734;8.490;2023-08-06T09:34:39;99147.22;;;17.77;76.19
45467;BME280;31212;49.734;8.490;2023-08-06T09:37:06;99081.00;;;17.89;74.46
45467;BME280;31212;49.734;8.490;2023-08-06T09:39:34;99093.09;;;17.93;74.65
45467;BME280;31212;49.734;8.490;2023-08-06T09:42:01;99067.81;;;18.10;74.10
45467;BME280;31212;49.734;8.490;2023-08-06T09:44:31;99079.53;;;18.20;74.03
45467;BME280;31212;49.734;8.490;2023-08-06T09:46:59;99064.91;;;17.97;73.57
45467;BME280;31212;49.734;8.490;2023-08-06T09:49:27;99100.19;;;17.72;74.64
45467;BME280;31212;49.734;8.490;2023-08-06T09:51:54;99121.34;;;17.50;75.24
45467;BME280;31212;49.734;8.490;2023-08-06T09:54:24;99132.88;;;17.27;75.69
45467;BME280;31212;49.734;8.490;2023-08-06T09:56:52;99153.13;;;17.44;75.69
45467;BME280;31212;49.734;8.490;2023-08-06T09:59:19;99151.13;;;17.68;75.50
45467;BME280;31212;49.734;8.490;2023-08-06T10:01:48;99144.00;;;18.08;74.81
45467;BME280;31212;49.734;8.490;2023-08-06T10:04:15;99082.88;;;19.10;73.00
45467;BME280;31212;49.734;8.490;2023-08-06T10:06:46;99010.31;;;19.38;71.35
45467;BME280;31212;49.734;8.490;2023-08-06T10:09:13;98982.75;;;19.29;70.70
45467;BME280;31212;49.734;8.490;2023-08-06T10:11:39;98992.75;;;19.22;70.53
45467;BME280;31212;49.734;8.490;2023-08-06T10:14:08;99029.16;;;18.80;71.34
45467;BME280;31212;49.734;8.490;2023-08-06T10:16:36;99042.34;;;18.63;71.77
45467;BME280;31212;49.734;8.490;2023-08-06T10:19:05;99078.34;;;18.61;72.30
45467;BME280;31212;49.734;8.490;2023-08-06T10:21:33;99095.13;;;18.58;72.44
45467;BME280;31212;49.734;8.490;2023-08-06T10:24:00;99082.13;;;18.73;72.13
45467;BME280;31212;49.734;8.490;2023-08-06T10:26:29;99054.53;;;18.81;71.52
45467;BME280;31212;49.734;8.490;2023-08-06T10:28:56;99014.41;;;18.78;71.04
45467;BME280;31212;49.734;8.490;2023-08-06T10:31:54;99066.84;;;18.46;72.04
45467;BME280;31212;49.734;8.490;2023-08-06T10:34:22;99145.16;;;18.03;73.80
45467;BME280;31212;49.734;8.490;2023-08-06T10:36:48;99219.06;;;17.55;75.81
45467;BME280;31212;49.734;8.490;2023-08-06T10:39:15;99276.22;;;17.28;77.44
45467;BME280;31212;49.734;8.490;2023-08-06T10:41:42;99299.19;;;17.23;78.11
45467;BME280;31212;49.734;8.490;2023-08-06T10:44:10;99299.19;;;17.23;78.12
45467;BME280;31212;49.734;8.490;2023-08-06T10:46:37;99295.78;;;17.41;77.91
45467;BME280;31212;49.734;8.490;2023-08-06T10:49:04;99286.31;;;17.58;77.87
45467;BME280;31212;49.734;8.490;2023-08-06T10:51:34;99304.34;;;17.65;78.11
45467;BME280;31212;49.734;8.490;2023-08-06T10:54:02;99248.16;;;17.51;76.60
45467;BME280;31212;49.734;8.490;2023-08-06T10:56:28;99217.13;;;17.40;76.08
45467;BME280;31212;49.734;8.490;2023-08-06T10:58:56;99199.63;;;17.40;75.74
45467;BME280;31212;49.734;8.490;2023-08-06T11:01:23;99166.28;;;17.42;74.44
45467;BME280;31212;49.734;8.490;2023-08-06T11:03:50;99112.78;;;17.46;73.09
45467;BME280;31212;49.734;8.490;2023-08-06T11:06:19;99143.25;;;17.49;73.49
45467;BME280;31212;49.734;8.490;2023-08-06T11:08:51;99178.78;;;17.56;74.08
45467;BME280;31212;49.734;8.490;2023-08-06T11:11:18;99215.72;;;17.52;74.80
45467;BME280;31212;49.734;8.490;2023-08-06T11:13:46;99241.19;;;17.49;75.55
45467;BME280;31212;49.734;8.490;2023-08-06T11:16:14;99278.66;;;17.32;76.37
45467;BME280;31212;49.734;8.490;2023-08-06T11:18:41;99321.00;;;17.23;77.02
45467;BME280;31212;49.734;8.490;2023-08-06T11:21:08;99357.75;;;17.01;78.62
45467;BME280;31212;49.734;8.490;2023-08-06T11:23:35;99383.94;;;16.79;79.05
45467;BME280;31212;49.734;8.490;2023-08-06T11:26:03;99392.13;;;16.47;79.95
45467;BME280;31212;49.734;8.490;2023-08-06T11:28:30;99438.81;;;16.36;81.27
45467;BME280;31212;49.734;8.490;2023-08-06T11:30:57;99453.69;;;16.59;81.80
45467;BME280;31212;49.734;8.490;2023-08-06T11:33:27;99415.22;;;16.60;80.28
45467;BME280;31212;49.734;8.490;2023-08-06T11:35:55;99368.03;;;16.61;79.07
45467;BME280;31212;49.734;8.490;2023-08-06T11:38:21;99281.84;;;16.76;76.88
45467;BME280;31212;49.734;8.490;2023-08-06T11:40:51;99204.13;;;16.97;74.74
45467;BME280;31212;49.734;8.490;2023-08-06T11:43:19;99168.75;;;17.06;73.75
45467;BME280;31212;49.734;8.490;2023-08-06T11:45:47;99141.22;;;17.16;72.46
45467;BME280;31212;49.734;8.490;2023-08-06T11:48:14;99065.41;;;17.11;70.80
45467;BME280;31212;49.734;8.490;2023-08-06T11:50:42;99113.03;;;17.21;71.43
45467;BME280;31212;49.734;8.490;2023-08-06T11:53:12;99090.75;;;17.11;70.87
45467;BME280;31212;49.734;8.490;2023-08-06T11:55:39;99106.31;;;16.95;71.24
45467;BME280;31212;49.734;8.490;2023-08-06T11:58:06;99133.66;;;16.89;71.34
45467;BME280;31212;49.734;8.490;2023-08-06T12:00:34;99158.34;;;17.04;71.75
45467;BME280;31212;49.734;8.490;2023-08-06T12:03:04;99149.72;;;17.02;71.45
45467;BME280;31212;49.734;8.490;2023-08-06T12:05:32;99244.50;;;16.93;73.32
45467;BME280;31212;49.734;8.490;2023-08-06T12:08:01;99304.03;;;16.89;74.47
45467;BME280;31212;49.734;8.490;2023-08-06T12:10:29;99278.38;;;16.75;74.00
45467;BME280;31212;49.734;8.490;2023-08-06T12:12:57;99271.28;;;16.77;73.83
45467;BME280;31212;49.734;8.490;2023-08-06T12:15:23;99258.84;;;16.82;73.23
45467;BME280;31212;49.734;8.490;2023-08-06T12:17:52;99233.31;;;16.88;72.83
45467;BME280;31212;49.734;8.490;2023-08-06T12:20:19;99191.44;;;16.86;71.89
45467;BME280;31212;49.734;8.490;2023-08-06T12:22:45;99130.47;;;16.81;70.73
45467;BME280;31212;49.734;8.490;2023-08-06T12:25:12;99125.25;;;16.81;70.42
45467;BME280;31212;49.734;8.490;2023-08-06T12:27:41;99088.34;;;16.86;69.38
45467;BME280;31212;49.734;8.490;2023-08-06T12:30:09;99105.00;;;16.85;69.30
45467;BME280;31212;49.734;8.490;2023-08-06T12:32:37;99126.50;;;16.93;69.54
45467;BME280;31212;49.734;8.490;2023-08-06T12:35:06;99091.44;;;16.95;69.10
45467;BME280;31212;49.734;8.490;2023-08-06T12:37:33;99105.56;;;17.12;68.59
45467;BME280;31212;49.734;8.490;2023-08-06T12:40:00;99065.19;;;17.35;67.76
45467;BME280;31212;49.734;8.490;2023-08-06T12:42:27;99061.34;;;17.61;67.43
45467;BME280;31212;49.734;8.490;2023-08-06T12:44:56;99035.53;;;17.89;66.68
45467;BME280;31212;49.734;8.490;2023-08-06T12:47:22;99000.91;;;17.99;65.89
45467;BME280;31212;49.734;8.490;2023-08-06T12:49:49;98939.22;;;17.89;65.07
45467;BME280;31212;49.734;8.490;2023-08-06T12:52:17;98953.44;;;17.85;65.04
45467;BME280;31212;49.734;8.490;2023-08-06T12:54:45;98993.19;;;17.77;65.46
45467;BME280;31212;49.734;8.490;2023-08-06T12:57:12;99040.22;;;17.82;66.48
45467;BME280;31212;49.734;8.490;2023-08-06T12:59:38;99063.69;;;17.85;66.30
45467;BME280;31212;49.734;8.490;2023-08-06T13:02:05;99041.06;;;17.82;65.85
45467;BME280;31212;49.734;8.490;2023-08-06T13:04:32;99029.56;;;17.85;65.64
45467;BME280;31212;49.734;8.490;2023-08-06T13:06:59;99005.53;;;17.94;64.90
45467;BME280;31212;49.734;8.490;2023-08-06T13:09:27;99001.94;;;17.78;64.99
45467;BME280;31212;49.734;8.490;2023-08-06T13:11:55;99072.50;;;17.84;65.75
45467;BME280;31212;49.734;8.490;2023-08-06T13:14:21;99089.38;;;17.97;65.65
45467;BME280;31212;49.734;8.490;2023-08-06T13:16:48;99087.72;;;17.96;65.95
45467;BME280;31212;49.734;8.490;2023-08-06T13:19:15;99120.22;;;17.94;66.33
45467;BME280;31212;49.734;8.490;2023-08-06T13:22:02;99064.69;;;17.82;65.39
45467;BME280;31212;49.734;8.490;2023-08-06T13:24:31;99070.47;;;17.72;65.13
45467;BME280;31212;49.734;8.490;2023-08-06T13:26:59;99090.69;;;17.70;65.65
45467;BME280;31212;49.734;8.490;2023-08-06T13:29:26;99112.19;;;17.78;65.87
45467;BME280;31212;49.734;8.490;2023-08-06T13:31:53;99125.97;;;17.64;66.07
45467;BME280;31212;49.734;8.490;2023-08-06T13:34:20;99158.06;;;17.50;66.65
45467;BME280;31212;49.734;8.490;2023-08-06T13:36:47;99229.81;;;17.49;67.78
45467;BME280;31212;49.734;8.490;2023-08-06T13:39:14;99206.13;;;17.11;67.62
45467;BME280;31212;49.734;8.490;2023-08-06T13:41:44;99258.13;;;17.01;68.68
45467;BME280;31212;49.734;8.490;2023-08-06T13:44:10;99296.72;;;16.97;68.81
45467;BME280;31212;49.734;8.490;2023-08-06T13:46:39;99314.75;;;17.05;69.81
45467;BME280;31212;49.734;8.490;2023-08-06T13:49:06;99357.84;;;17.20;70.21
45467;BME280;31212;49.734;8.490;2023-08-06T13:51:33;99367.28;;;17.04;70.39
45467;BME280;31212;49.734;8.490;2023-08-06T13:54:01;99433.78;;;17.23;71.63
45467;BME280;31212;49.734;8.490;2023-08-06T13:56:28;99402.06;;;17.29;70.84
45467;BME280;31212;49.734;8.490;2023-08-06T13:58:56;99379.13;;;17.35;70.69
45467;BME280;31212;49.734;8.490;2023-08-06T14:01:23;99313.66;;;17.31;69.29
45467;BME280;31212;49.734;8.490;2023-08-06T14:03:49;99295.13;;;17.36;68.98
45467;BME280;31212;49.734;8.490;2023-08-06T14:06:16;99290.44;;;17.63;68.85
45467;BME280;31212;49.734;8.490;2023-08-06T14:08:43;99296.28;;;17.89;68.46
45467;BME280;31212;49.734;8.490;2023-08-06T14:11:09;99264.31;;;18.19;67.55
45467;BME280;31212;49.734;8.490;2023-08-06T14:13:36;99250.97;;;18.43;66.98
45467;BME280;31212;49.734;8.490;2023-08-06T14:16:04;99258.94;;;18.41;67.25
45467;BME280;31212;49.734;8.490;2023-08-06T14:18:31;99277.94;;;18.27;67.34
45467;BME280;31212;49.734;8.490;2023-08-06T14:20:58;99339.41;;;18.04;68.72
45467;BME280;31212;49.734;8.490;2023-08-06T14:23:24;99329.81;;;17.63;68.78
45467;BME280;31212;49.734;8.490;2023-08-06T14:25:51;99376.19;;;17.63;69.48
45467;BME280;31212;49.734;8.490;2023-08-06T14:28:18;99388.34;;;17.65;69.66
45467;BME280;31212;49.734;8.490;2023-08-06T14:30:44;99352.59;;;17.63;68.99
45467;BME280;31212;49.734;8.490;2023-08-06T14:33:12;99327.13;;;17.44;68.70
45467;BME280;31212;49.734;8.490;2023-08-06T14:35:39;99377.78;;;17.46;69.35
45467;BME280;31212;49.734;8.490;2023-08-06T14:38:05;99346.91;;;17.31;69.04
45467;BME280;31212;49.734;8.490;2023-08-06T14:40:33;99378.00;;;17.20;69.54
45467;BME280;31212;49.734;8.490;2023-08-06T14:43:03;99411.59;;;17.10;69.62
45467;BME280;31212;49.734;8.490;2023-08-06T14:45:29;99423.19;;;17.04;70.10
45467;BME280;31212;49.734;8.490;2023-08-06T14:47:56;99422.03;;;16.88;70.48
45467;BME280;31212;49.734;8.490;2023-08-06T14:50:24;99497.06;;;16.68;71.77
45467;BME280;31212;49.734;8.490;2023-08-06T14:52:51;99501.88;;;16.55;72.20
45467;BME280;31212;49.734;8.490;2023-08-06T14:55:23;99547.75;;;16.42;73.22
45467;BME280;31212;49.734;8.490;2023-08-06T14:57:50;99560.22;;;16.35;73.37
45467;BME280;31212;49.734;8.490;2023-08-06T15:00:17;99591.53;;;16.38;73.94
45467;BME280;31212;49.734;8.490;2023-08-06T15:02:44;99630.63;;;16.44;75.14
45467;BME280;31212;49.734;8.490;2023-08-06T15:05:10;99656.47;;;16.55;75.33
45467;BME280;31212;49.734;8.490;2023-08-06T15:07:38;99642.97;;;16.41;75.66
45467;BME280;31212;49.734;8.490;2023-08-06T15:10:06;99642.38;;;16.33;75.47
45467;BME280;31212;49.734;8.490;2023-08-06T15:12:33;99655.09;;;16.17;76.19
45467;BME280;31212;49.734;8.490;2023-08-06T15:14:59;99673.78;;;16.06;77.23
45467;BME280;31212;49.734;8.490;2023-08-06T15:17:27;99687.25;;;15.93;77.09
45467;BME280;31212;49.734;8.490;2023-08-06T15:19:56;99738.66;;;15.96;79.02
45467;BME280;31212;49.734;8.490;2023-08-06T15:22:26;99724.09;;;15.87;78.62
45467;BME280;31212;49.734;8.490;2023-08-06T15:24:55;99739.81;;;15.87;78.89
45467;BME280;31212;49.734;8.490;2023-08-06T15:27:23;99721.53;;;15.84;78.76
45467;BME280;31212;49.734;8.490;2023-08-06T15:29:50;99730.94;;;15.91;78.37
45467;BME280;31212;49.734;8.490;2023-08-06T15:32:16;99743.03;;;15.95;79.16
45467;BME280;31212;49.734;8.490;2023-08-06T15:34:43;99698.88;;;15.85;78.43
45467;BME280;31212;49.734;8.490;2023-08-06T15:37:10;99677.81;;;15.88;77.59
45467;BME280;31212;49.734;8.490;2023-08-06T15:39:36;99717.00;;;15.91;78.29
45467;BME280;31212;49.734;8.490;2023-08-06T15:42:05;99676.34;;;15.77;76.69
45467;BME280;31212;49.734;8.490;2023-08-06T15:44:32;99670.38;;;15.72;76.67
45467;BME280;31212;49.734;8.490;2023-08-06T15:46:59;99680.06;;;15.70;76.72
45467;BME280;31212;49.734;8.490;2023-08-06T15:49:25;99687.81;;;15.73;77.29
45467;BME280;31212;49.734;8.490;2023-08-06T15:51:52;99732.19;;;15.78;78.13
45467;BME280;31212;49.734;8.490;2023-08-06T15:54:19;99735.81;;;15.72;78.33
45467;BME280;31212;49.734;8.490;2023-08-06T15:56:46;99706.06;;;15.76;77.65
45467;BME280;31212;49.734;8.490;2023-08-06T15:59:27;99693.81;;;15.77;77.10
45467;BME280;31212;49.734;8.490;2023-08-06T16:01:55;99700.09;;;15.71;77.01
45467;BME280;31212;49.734;8.490;2023-08-06T16:04:23;99681.06;;;15.66;76.86
45467;BME280;31212;49.734;8.490;2023-08-06T16:06:50;99713.22;;;15.70;77.01
45467;BME280;31212;49.734;8.490;2023-08-06T16:09:17;99723.81;;;15.65;77.41
45467;BME280;31212;49.734;8.490;2023-08-06T16:11:46;99722.97;;;15.64;77.57
45467;BME280;31212;49.734;8.490;2023-08-06T16:14:13;99730.56;;;15.72;77.67
45467;BME280;31212;49.734;8.490;2023-08-06T16:16:41;99709.56;;;15.75;77.32
45467;BME280;31212;49.734;8.490;2023-08-06T16:19:09;99721.75;;;15.76;76.96
45467;BME280;31212;49.734;8.490;2023-08-06T16:21:35;99725.09;;;15.81;77.23
45467;BME280;31212;49.734;8.490;2023-08-06T16:24:02;99712.19;;;15.75;76.81
45467;BME280;31212;49.734;8.490;2023-08-06T16:26:30;99724.28;;;15.79;77.24
45467;BME280;31212;49.734;8.490;2023-08-06T16:28:57;99707.03;;;15.72;76.77
45467;BME280;31212;49.734;8.490;2023-08-06T16:31:24;99718.41;;;15.71;77.22
45467;BME280;31212;49.734;8.490;2023-08-06T16:33:52;99732.41;;;15.70;77.25
45467;BME280;31212;49.734;8.490;2023-08-06T16:36:18;99735.91;;;15.69;77.57
45467;BME280;31212;49.734;8.490;2023-08-06T16:38:45;99766.63;;;15.62;78.39
45467;BME280;31212;49.734;8.490;2023-08-06T16:41:12;99788.50;;;15.60;78.99
45467;BME280;31212;49.734;8.490;2023-08-06T16:43:38;99814.75;;;15.57;79.50
45467;BME280;31212;49.734;8.490;2023-08-06T16:46:05;99845.34;;;15.53;80.42
45467;BME280;31212;49.734;8.490;2023-08-06T16:48:32;99853.16;;;15.55;80.41
45467;BME280;31212;49.734;8.490;2023-08-06T16:51:03;99819.28;;;15.50;79.69
45467;BME280;31212;49.734;8.490;2023-08-06T16:53:29;99772.88;;;15.57;78.85
45467;BME280;31212;49.734;8.490;2023-08-06T16:55:56;99780.59;;;15.61;78.40
45467;BME280;31212;49.734;8.490;2023-08-06T16:58:24;99787.50;;;15.64;78.73
45467;BME280;31212;49.734;8.490;2023-08-06T17:00:51;99758.88;;;15.59;77.65
45467;BME280;31212;49.734;8.490;2023-08-06T17:03:18;99739.81;;;15.54;77.54
45467;BME280;31212;49.734;8.490;2023-08-06T17:05:45;99736.13;;;15.61;76.80
45467;BME280;31212;49.734;8.490;2023-08-06T17:08:13;99702.09;;;15.63;76.20
45467;BME280;31212;49.734;8.490;2023-08-06T17:10:40;99672.38;;;15.66;75.69
45467;BME280;31212;49.734;8.490;2023-08-06T17:13:06;99664.41;;;15.69;75.33
45467;BME280;31212;49.734;8.490;2023-08-06T17:15:33;99694.00;;;15.71;75.68
45467;BME280;31212;49.734;8.490;2023-08-06T17:18:00;99651.28;;;15.70;74.60